sensor_id;sensor_type;location;lat;lon;timestamp;P1;durP1;ratioP1;P2;durP2;ratioP2
64682;SDS011;51107;47.652;19.016;2022-10-18T00:01:06;8.68;;;2.42;;
64682;SDS011;51107;47.652;19.016;2022-10-18T00:03:36;3.00;;;2.25;;
64682;SDS011;51107;47.652;19.016;2022-10-18T00:06:06;3.35;;;2.05;;
64682;SDS011;51107;47.652;19.016;2022-10-18T00:08:36;4.22;;;2.15;;
64682;SDS011;51107;47.652;19.016;2022-10-18T00:11:05;3.85;;;2.28;;
64682;SDS011;51107;47.652;19.016;2022-10-18T00:13:34;2.78;;;2.03;;
64682;SDS011;51107;47.652;19.016;2022-10-18T00:16:03;3.12;;;2.28;;
64682;SDS011;51107;47.652;19.016;2022-10-18T00:18:36;4.35;;;2.28;;
64682;SDS011;51107;47.652;19.016;2022-10-18T00:21:06;2.92;;;1.80;;
64682;SDS011;51107;47.652;19.016;2022-10-18T00:23:38;3.28;;;2.42;;
64682;SDS011;51107;47.652;19.016;2022-10-18T00:26:08;3.33;;;1.98;;
64682;SDS011;51107;47.652;19.016;2022-10-18T00:28:39;2.95;;;1.90;;
64682;SDS011;51107;47.652;19.016;2022-10-18T00:31:13;2.97;;;2.40;;
64682;SDS011;51107;47.652;19.016;2022-10-18T00:33:43;2.30;;;1.83;;
64682;SDS011;51107;47.652;19.016;2022-10-18T00:36:12;2.60;;;1.80;;
64682;SDS011;51107;47.652;19.016;2022-10-18T00:38:41;4.60;;;2.40;;
64682;SDS011;51107;47.652;19.016;2022-10-18T00:41:12;4.60;;;2.10;;
64682;SDS011;51107;47.652;19.016;2022-10-18T00:43:50;3.03;;;2.08;;
64682;SDS011;51107;47.652;19.016;2022-10-18T00:46:18;3.95;;;2.08;;
64682;SDS011;51107;47.652;19.016;2022-10-18T00:48:47;3.92;;;2.40;;
64682;SDS011;51107;47.652;19.016;2022-10-18T00:51:15;2.80;;;1.90;;
64682;SDS011;51107;47.652;19.016;2022-10-18T00:53:47;3.33;;;2.08;;
64682;SDS011;51107;47.652;19.016;2022-10-18T00:56:16;5.70;;;2.45;;
64682;SDS011;51107;47.652;19.016;2022-10-18T00:58:45;4.87;;;1.95;;
64682;SDS011;51107;47.652;19.016;2022-10-18T01:01:16;3.28;;;2.12;;
64682;SDS011;51107;47.652;19.016;2022-10-18T01:03:44;3.75;;;2.20;;
64682;SDS011;51107;47.652;19.016;2022-10-18T01:06:12;4.50;;;1.95;;
64682;SDS011;51107;47.652;19.016;2022-10-18T01:08:43;2.80;;;1.87;;
64682;SDS011;51107;47.652;19.016;2022-10-18T01:14:17;4.37;;;2.60;;
64682;SDS011;51107;47.652;19.016;2022-10-18T01:17:00;2.37;;;1.70;;
64682;SDS011;51107;47.652;19.016;2022-10-18T01:22:54;4.93;;;2.00;;
64682;SDS011;51107;47.652;19.016;2022-10-18T01:25:35;2.92;;;1.83;;
64682;SDS011;51107;47.652;19.016;2022-10-18T01:31:38;3.97;;;2.42;;
64682;SDS011;51107;47.652;19.016;2022-10-18T01:34:12;2.60;;;1.73;;
64682;SDS011;51107;47.652;19.016;2022-10-18T01:36:48;6.10;;;2.20;;
64682;SDS011;51107;47.652;19.016;2022-10-18T01:39:20;5.05;;;1.90;;
64682;SDS011;51107;47.652;19.016;2022-10-18T01:41:53;3.25;;;2.20;;
64682;SDS011;51107;47.652;19.016;2022-10-18T01:44:25;3.60;;;2.15;;
64682;SDS011;51107;47.652;19.016;2022-10-18T01:46:56;5.78;;;2.58;;
64682;SDS011;51107;47.652;19.016;2022-10-18T01:49:26;4.40;;;2.53;;
64682;SDS011;51107;47.652;19.016;2022-10-18T01:51:54;3.45;;;2.12;;
64682;SDS011;51107;47.652;19.016;2022-10-18T01:54:24;3.20;;;1.80;;
64682;SDS011;51107;47.652;19.016;2022-10-18T01:56:59;8.43;;;2.10;;
64682;SDS011;51107;47.652;19.016;2022-10-18T02:05:02;2.40;;;1.90;;
64682;SDS011;51107;47.652;19.016;2022-10-18T02:08:12;4.93;;;1.92;;
64682;SDS011;51107;47.652;19.016;2022-10-18T02:19:36;3.70;;;2.08;;
64682;SDS011;51107;47.652;19.016;2022-10-18T02:22:06;3.97;;;1.95;;
64682;SDS011;51107;47.652;19.016;2022-10-18T02:24:37;3.97;;;1.98;;
64682;SDS011;51107;47.652;19.016;2022-10-18T02:27:09;2.72;;;1.70;;
64682;SDS011;51107;47.652;19.016;2022-10-18T02:29:37;2.25;;;1.75;;
64682;SDS011;51107;47.652;19.016;2022-10-18T02:32:10;4.53;;;2.28;;
64682;SDS011;51107;47.652;19.016;2022-10-18T02:35:19;3.30;;;2.03;;
64682;SDS011;51107;47.652;19.016;2022-10-18T02:37:54;1.80;;;1.65;;
64682;SDS011;51107;47.652;19.016;2022-10-18T02:40:25;2.90;;;2.20;;
64682;SDS011;51107;47.652;19.016;2022-10-18T02:42:54;3.25;;;2.17;;
64682;SDS011;51107;47.652;19.016;2022-10-18T02:45:24;4.87;;;2.45;;
64682;SDS011;51107;47.652;19.016;2022-10-18T02:47:53;3.03;;;2.30;;
64682;SDS011;51107;47.652;19.016;2022-10-18T02:50:22;3.05;;;1.95;;
64682;SDS011;51107;47.652;19.016;2022-10-18T02:52:50;2.97;;;2.03;;
64682;SDS011;51107;47.652;19.016;2022-10-18T02:55:18;3.17;;;2.10;;
64682;SDS011;51107;47.652;19.016;2022-10-18T02:57:47;2.95;;;2.05;;
64682;SDS011;51107;47.652;19.016;2022-10-18T03:00:15;5.25;;;2.65;;
64682;SDS011;51107;47.652;19.016;2022-10-18T03:02:44;5.68;;;2.37;;
64682;SDS011;51107;47.652;19.016;2022-10-18T03:05:12;4.68;;;1.98;;
64682;SDS011;51107;47.652;19.016;2022-10-18T03:07:40;8.38;;;2.53;;
64682;SDS011;51107;47.652;19.016;2022-10-18T03:10:09;3.58;;;2.53;;
64682;SDS011;51107;47.652;19.016;2022-10-18T03:12:37;2.62;;;1.67;;
64682;SDS011;51107;47.652;19.016;2022-10-18T03:15:05;4.25;;;2.35;;
64682;SDS011;51107;47.652;19.016;2022-10-18T03:17:34;2.55;;;2.00;;
64682;SDS011;51107;47.652;19.016;2022-10-18T03:20:02;2.55;;;1.85;;
64682;SDS011;51107;47.652;19.016;2022-10-18T03:22:30;4.65;;;1.77;;
64682;SDS011;51107;47.652;19.016;2022-10-18T03:24:59;5.05;;;2.15;;
64682;SDS011;51107;47.652;19.016;2022-10-18T03:27:27;3.87;;;2.00;;
64682;SDS011;51107;47.652;19.016;2022-10-18T03:29:56;2.47;;;1.95;;
64682;SDS011;51107;47.652;19.016;2022-10-18T03:32:26;3.47;;;1.75;;
64682;SDS011;51107;47.652;19.016;2022-10-18T03:34:54;2.47;;;1.92;;
64682;SDS011;51107;47.652;19.016;2022-10-18T03:37:22;3.20;;;2.05;;
64682;SDS011;51107;47.652;19.016;2022-10-18T03:39:57;6.90;;;3.05;;
64682;SDS011;51107;47.652;19.016;2022-10-18T03:42:25;2.58;;;1.70;;
64682;SDS011;51107;47.652;19.016;2022-10-18T03:44:54;4.32;;;2.42;;
64682;SDS011;51107;47.652;19.016;2022-10-18T03:47:22;2.65;;;1.87;;
64682;SDS011;51107;47.652;19.016;2022-10-18T03:49:51;7.07;;;2.60;;
64682;SDS011;51107;47.652;19.016;2022-10-18T03:52:24;2.62;;;1.60;;
64682;SDS011;51107;47.652;19.016;2022-10-18T03:54:52;11.25;;;1.90;;
64682;SDS011;51107;47.652;19.016;2022-10-18T03:57:21;2.72;;;2.00;;
64682;SDS011;51107;47.652;19.016;2022-10-18T03:59:49;4.28;;;2.40;;
64682;SDS011;51107;47.652;19.016;2022-10-18T04:02:17;3.83;;;2.00;;
64682;SDS011;51107;47.652;19.016;2022-10-18T04:04:46;3.30;;;1.85;;
64682;SDS011;51107;47.652;19.016;2022-10-18T04:07:14;3.05;;;1.60;;
64682;SDS011;51107;47.652;19.016;2022-10-18T04:09:43;3.92;;;2.20;;
64682;SDS011;51107;47.652;19.016;2022-10-18T04:12:11;6.87;;;2.42;;
64682;SDS011;51107;47.652;19.016;2022-10-18T04:14:40;4.45;;;2.92;;
64682;SDS011;51107;47.652;19.016;2022-10-18T04:17:08;3.12;;;1.80;;
64682;SDS011;51107;47.652;19.016;2022-10-18T04:19:38;2.37;;;1.85;;
64682;SDS011;51107;47.652;19.016;2022-10-18T04:22:08;4.57;;;2.42;;
64682;SDS011;51107;47.652;19.016;2022-10-18T04:24:37;5.10;;;2.12;;
64682;SDS011;51107;47.652;19.016;2022-10-18T04:27:06;2.85;;;1.60;;
64682;SDS011;51107;47.652;19.016;2022-10-18T04:29:35;5.05;;;2.22;;
64682;SDS011;51107;47.652;19.016;2022-10-18T04:32:04;3.10;;;1.87;;
64682;SDS011;51107;47.652;19.016;2022-10-18T04:34:32;3.03;;;2.17;;
64682;SDS011;51107;47.652;19.016;2022-10-18T04:37:00;4.07;;;1.77;;
64682;SDS011;51107;47.652;19.016;2022-10-18T04:39:29;4.68;;;2.15;;
64682;SDS011;51107;47.652;19.016;2022-10-18T04:41:57;4.45;;;2.58;;
64682;SDS011;51107;47.652;19.016;2022-10-18T04:44:25;4.03;;;3.00;;
64682;SDS011;51107;47.652;19.016;2022-10-18T04:46:54;4.70;;;2.37;;
64682;SDS011;51107;47.652;19.016;2022-10-18T04:49:22;5.28;;;2.28;;
64682;SDS011;51107;47.652;19.016;2022-10-18T04:51:50;4.15;;;2.37;;
64682;SDS011;51107;47.652;19.016;2022-10-18T04:54:19;11.48;;;2.05;;
64682;SDS011;51107;47.652;19.016;2022-10-18T04:56:51;4.70;;;2.87;;
64682;SDS011;51107;47.652;19.016;2022-10-18T04:59:20;3.15;;;2.30;;
64682;SDS011;51107;47.652;19.016;2022-10-18T05:01:48;3.40;;;1.77;;
64682;SDS011;51107;47.652;19.016;2022-10-18T05:04:16;3.12;;;2.30;;
64682;SDS011;51107;47.652;19.016;2022-10-18T05:06:45;4.07;;;2.40;;
64682;SDS011;51107;47.652;19.016;2022-10-18T05:09:13;4.65;;;2.22;;
64682;SDS011;51107;47.652;19.016;2022-10-18T05:11:42;2.42;;;2.22;;
64682;SDS011;51107;47.652;19.016;2022-10-18T05:14:10;3.50;;;2.03;;
64682;SDS011;51107;47.652;19.016;2022-10-18T05:16:39;4.05;;;2.10;;
64682;SDS011;51107;47.652;19.016;2022-10-18T05:19:07;4.00;;;2.30;;
64682;SDS011;51107;47.652;19.016;2022-10-18T05:21:35;8.43;;;2.55;;
64682;SDS011;51107;47.652;19.016;2022-10-18T05:24:04;5.70;;;2.65;;
64682;SDS011;51107;47.652;19.016;2022-10-18T05:26:32;14.13;;;2.92;;
64682;SDS011;51107;47.652;19.016;2022-10-18T05:29:01;9.73;;;3.42;;
64682;SDS011;51107;47.652;19.016;2022-10-18T05:31:30;3.75;;;2.72;;
64682;SDS011;51107;47.652;19.016;2022-10-18T05:33:58;5.47;;;2.45;;
64682;SDS011;51107;47.652;19.016;2022-10-18T05:36:28;8.70;;;2.33;;
64682;SDS011;51107;47.652;19.016;2022-10-18T05:38:56;4.25;;;2.28;;
64682;SDS011;51107;47.652;19.016;2022-10-18T05:41:31;7.62;;;2.42;;
64682;SDS011;51107;47.652;19.016;2022-10-18T05:44:02;3.10;;;2.20;;
64682;SDS011;51107;47.652;19.016;2022-10-18T05:46:31;4.00;;;2.33;;
64682;SDS011;51107;47.652;19.016;2022-10-18T05:49:00;7.30;;;3.03;;
64682;SDS011;51107;47.652;19.016;2022-10-18T05:51:28;10.20;;;2.97;;
64682;SDS011;51107;47.652;19.016;2022-10-18T05:53:57;3.75;;;2.35;;
64682;SDS011;51107;47.652;19.016;2022-10-18T05:56:25;3.45;;;2.10;;
64682;SDS011;51107;47.652;19.016;2022-10-18T05:58:53;4.85;;;2.05;;
64682;SDS011;51107;47.652;19.016;2022-10-18T06:01:22;2.83;;;2.05;;
64682;SDS011;51107;47.652;19.016;2022-10-18T06:03:50;4.43;;;2.92;;
64682;SDS011;51107;47.652;19.016;2022-10-18T06:06:19;4.75;;;2.37;;
64682;SDS011;51107;47.652;19.016;2022-10-18T06:08:48;5.43;;;2.37;;
64682;SDS011;51107;47.652;19.016;2022-10-18T06:11:18;3.78;;;2.45;;
64682;SDS011;51107;47.652;19.016;2022-10-18T06:13:47;8.23;;;3.17;;
64682;SDS011;51107;47.652;19.016;2022-10-18T06:16:19;4.90;;;3.25;;
64682;SDS011;51107;47.652;19.016;2022-10-18T06:18:49;3.33;;;2.30;;
64682;SDS011;51107;47.652;19.016;2022-10-18T06:21:19;5.28;;;2.90;;
64682;SDS011;51107;47.652;19.016;2022-10-18T06:23:56;15.85;;;3.15;;
64682;SDS011;51107;47.652;19.016;2022-10-18T06:26:26;3.15;;;2.22;;
64682;SDS011;51107;47.652;19.016;2022-10-18T06:28:55;2.75;;;2.17;;
64682;SDS011;51107;47.652;19.016;2022-10-18T06:31:23;4.40;;;2.40;;
64682;SDS011;51107;47.652;19.016;2022-10-18T06:33:51;4.12;;;3.30;;
64682;SDS011;51107;47.652;19.016;2022-10-18T06:36:20;3.65;;;2.75;;
64682;SDS011;51107;47.652;19.016;2022-10-18T06:38:49;3.17;;;1.90;;
64682;SDS011;51107;47.652;19.016;2022-10-18T06:41:18;3.45;;;2.28;;
64682;SDS011;51107;47.652;19.016;2022-10-18T06:43:50;3.15;;;2.40;;
64682;SDS011;51107;47.652;19.016;2022-10-18T06:46:20;6.32;;;2.83;;
64682;SDS011;51107;47.652;19.016;2022-10-18T06:48:49;4.62;;;2.53;;
64682;SDS011;51107;47.652;19.016;2022-10-18T06:51:18;3.83;;;2.60;;
64682;SDS011;51107;47.652;19.016;2022-10-18T06:53:46;5.90;;;2.87;;
64682;SDS011;51107;47.652;19.016;2022-10-18T06:56:35;7.45;;;3.15;;
64682;SDS011;51107;47.652;19.016;2022-10-18T06:59:04;4.72;;;2.92;;
64682;SDS011;51107;47.652;19.016;2022-10-18T07:01:32;10.70;;;3.00;;
64682;SDS011;51107;47.652;19.016;2022-10-18T07:04:01;4.12;;;2.25;;
64682;SDS011;51107;47.652;19.016;2022-10-18T07:06:30;5.20;;;2.85;;
64682;SDS011;51107;47.652;19.016;2022-10-18T07:08:59;12.88;;;3.17;;
64682;SDS011;51107;47.652;19.016;2022-10-18T07:11:29;4.50;;;2.30;;
64682;SDS011;51107;47.652;19.016;2022-10-18T07:13:58;4.65;;;2.72;;
64682;SDS011;51107;47.652;19.016;2022-10-18T07:16:30;3.72;;;2.67;;
64682;SDS011;51107;47.652;19.016;2022-10-18T07:18:59;3.65;;;2.65;;
64682;SDS011;51107;47.652;19.016;2022-10-18T07:21:28;11.55;;;3.30;;
64682;SDS011;51107;47.652;19.016;2022-10-18T07:23:57;4.43;;;2.90;;
64682;SDS011;51107;47.652;19.016;2022-10-18T07:26:26;7.18;;;2.92;;
64682;SDS011;51107;47.652;19.016;2022-10-18T07:28:58;5.30;;;3.40;;
64682;SDS011;51107;47.652;19.016;2022-10-18T07:31:34;3.37;;;2.67;;
64682;SDS011;51107;47.652;19.016;2022-10-18T07:34:05;8.05;;;3.30;;
64682;SDS011;51107;47.652;19.016;2022-10-18T07:36:34;4.82;;;2.85;;
64682;SDS011;51107;47.652;19.016;2022-10-18T07:39:03;4.87;;;2.75;;
64682;SDS011;51107;47.652;19.016;2022-10-18T07:41:32;5.60;;;2.95;;
64682;SDS011;51107;47.652;19.016;2022-10-18T07:44:01;5.12;;;2.50;;
64682;SDS011;51107;47.652;19.016;2022-10-18T07:46:30;6.43;;;3.17;;
64682;SDS011;51107;47.652;19.016;2022-10-18T07:48:59;7.90;;;2.78;;
64682;SDS011;51107;47.652;19.016;2022-10-18T07:51:27;3.72;;;2.37;;
64682;SDS011;51107;47.652;19.016;2022-10-18T07:53:57;4.85;;;3.08;;
64682;SDS011;51107;47.652;19.016;2022-10-18T07:56:26;4.20;;;2.90;;
64682;SDS011;51107;47.652;19.016;2022-10-18T07:58:55;7.30;;;3.37;;
64682;SDS011;51107;47.652;19.016;2022-10-18T08:01:23;4.15;;;3.10;;
64682;SDS011;51107;47.652;19.016;2022-10-18T08:03:52;6.43;;;3.37;;
64682;SDS011;51107;47.652;19.016;2022-10-18T08:06:21;6.53;;;3.58;;
64682;SDS011;51107;47.652;19.016;2022-10-18T08:08:50;4.62;;;3.20;;
64682;SDS011;51107;47.652;19.016;2022-10-18T08:11:20;5.20;;;3.08;;
64682;SDS011;51107;47.652;19.016;2022-10-18T08:13:50;7.45;;;3.75;;
64682;SDS011;51107;47.652;19.016;2022-10-18T08:16:21;5.85;;;3.17;;
64682;SDS011;51107;47.652;19.016;2022-10-18T08:18:56;7.22;;;3.60;;
64682;SDS011;51107;47.652;19.016;2022-10-18T08:21:25;5.18;;;3.33;;
64682;SDS011;51107;47.652;19.016;2022-10-18T08:23:53;5.07;;;3.35;;
64682;SDS011;51107;47.652;19.016;2022-10-18T08:26:22;7.90;;;3.70;;
64682;SDS011;51107;47.652;19.016;2022-10-18T08:28:51;4.18;;;2.97;;
64682;SDS011;51107;47.652;19.016;2022-10-18T08:31:30;11.93;;;3.17;;
64682;SDS011;51107;47.652;19.016;2022-10-18T08:33:59;7.85;;;3.62;;
64682;SDS011;51107;47.652;19.016;2022-10-18T08:36:27;4.93;;;3.10;;
64682;SDS011;51107;47.652;19.016;2022-10-18T08:38:55;4.28;;;2.83;;
64682;SDS011;51107;47.652;19.016;2022-10-18T08:44:13;5.35;;;3.08;;
64682;SDS011;51107;47.652;19.016;2022-10-18T08:46:54;4.55;;;3.17;;
64682;SDS011;51107;47.652;19.016;2022-10-18T08:49:28;4.85;;;2.92;;
64682;SDS011;51107;47.652;19.016;2022-10-18T08:52:20;7.43;;;3.45;;
64682;SDS011;51107;47.652;19.016;2022-10-18T08:57:41;4.68;;;2.85;;
64682;SDS011;51107;47.652;19.016;2022-10-18T09:00:14;6.90;;;3.75;;
64682;SDS011;51107;47.652;19.016;2022-10-18T09:05:24;6.62;;;3.55;;
64682;SDS011;51107;47.652;19.016;2022-10-18T09:13:40;7.35;;;3.25;;
64682;SDS011;51107;47.652;19.016;2022-10-18T09:16:19;3.92;;;2.75;;
64682;SDS011;51107;47.652;19.016;2022-10-18T09:21:34;4.78;;;3.20;;
64682;SDS011;51107;47.652;19.016;2022-10-18T09:26:41;6.47;;;3.30;;
64682;SDS011;51107;47.652;19.016;2022-10-18T09:37:53;6.07;;;3.58;;
64682;SDS011;51107;47.652;19.016;2022-10-18T09:40:28;4.15;;;3.25;;
64682;SDS011;51107;47.652;19.016;2022-10-18T09:43:02;4.82;;;3.30;;
64682;SDS011;51107;47.652;19.016;2022-10-18T09:45:41;4.97;;;3.10;;
64682;SDS011;51107;47.652;19.016;2022-10-18T09:50:49;9.55;;;3.90;;
64682;SDS011;51107;47.652;19.016;2022-10-18T09:53:36;4.60;;;3.00;;
64682;SDS011;51107;47.652;19.016;2022-10-18T09:56:29;6.15;;;3.33;;
64682;SDS011;51107;47.652;19.016;2022-10-18T09:59:19;8.52;;;3.55;;
64682;SDS011;51107;47.652;19.016;2022-10-18T10:01:53;4.47;;;2.85;;
64682;SDS011;51107;47.652;19.016;2022-10-18T10:04:24;6.72;;;3.42;;
64682;SDS011;51107;47.652;19.016;2022-10-18T10:06:54;6.93;;;3.53;;
64682;SDS011;51107;47.652;19.016;2022-10-18T10:09:27;4.53;;;3.03;;
64682;SDS011;51107;47.652;19.016;2022-10-18T10:11:57;8.05;;;3.42;;
64682;SDS011;51107;47.652;19.016;2022-10-18T10:14:27;8.02;;;2.95;;
64682;SDS011;51107;47.652;19.016;2022-10-18T10:19:27;5.62;;;3.22;;
64682;SDS011;51107;47.652;19.016;2022-10-18T10:22:03;6.55;;;3.50;;
64682;SDS011;51107;47.652;19.016;2022-10-18T10:27:20;6.57;;;3.42;;
64682;SDS011;51107;47.652;19.016;2022-10-18T10:32:55;5.22;;;2.58;;
64682;SDS011;51107;47.652;19.016;2022-10-18T10:35:37;6.75;;;3.05;;
64682;SDS011;51107;47.652;19.016;2022-10-18T10:38:23;3.90;;;2.70;;
64682;SDS011;51107;47.652;19.016;2022-10-18T10:40:53;4.75;;;2.75;;
64682;SDS011;51107;47.652;19.016;2022-10-18T10:46:11;4.53;;;2.50;;
64682;SDS011;51107;47.652;19.016;2022-10-18T10:51:43;2.60;;;2.40;;
64682;SDS011;51107;47.652;19.016;2022-10-18T10:54:29;4.65;;;3.10;;
64682;SDS011;51107;47.652;19.016;2022-10-18T10:59:54;3.10;;;2.40;;
64682;SDS011;51107;47.652;19.016;2022-10-18T11:02:29;5.07;;;2.95;;
64682;SDS011;51107;47.652;19.016;2022-10-18T11:05:18;3.87;;;2.70;;
64682;SDS011;51107;47.652;19.016;2022-10-18T11:07:57;4.87;;;3.05;;
64682;SDS011;51107;47.652;19.016;2022-10-18T11:10:30;6.80;;;2.53;;
64682;SDS011;51107;47.652;19.016;2022-10-18T11:15:35;3.97;;;2.47;;
64682;SDS011;51107;47.652;19.016;2022-10-18T11:23:32;3.53;;;2.40;;
64682;SDS011;51107;47.652;19.016;2022-10-18T11:42:43;2.95;;;2.00;;
64682;SDS011;51107;47.652;19.016;2022-10-18T11:45:31;3.72;;;2.28;;
64682;SDS011;51107;47.652;19.016;2022-10-18T11:48:15;6.03;;;1.87;;
64682;SDS011;51107;47.652;19.016;2022-10-18T11:53:29;2.87;;;1.80;;
64682;SDS011;51107;47.652;19.016;2022-10-18T11:59:27;3.75;;;2.08;;
64682;SDS011;51107;47.652;19.016;2022-10-18T12:05:09;4.75;;;1.90;;
64682;SDS011;51107;47.652;19.016;2022-10-18T12:07:57;3.50;;;2.17;;
64682;SDS011;51107;47.652;19.016;2022-10-18T12:10:42;8.80;;;1.73;;
64682;SDS011;51107;47.652;19.016;2022-10-18T12:13:33;6.18;;;2.15;;
64682;SDS011;51107;47.652;19.016;2022-10-18T12:16:05;4.32;;;2.03;;
64682;SDS011;51107;47.652;19.016;2022-10-18T12:18:35;3.15;;;1.98;;
64682;SDS011;51107;47.652;19.016;2022-10-18T12:21:09;7.03;;;1.90;;
64682;SDS011;51107;47.652;19.016;2022-10-18T12:23:42;1.98;;;1.30;;
64682;SDS011;51107;47.652;19.016;2022-10-18T12:26:18;2.28;;;1.70;;
64682;SDS011;51107;47.652;19.016;2022-10-18T12:28:50;3.75;;;1.62;;
64682;SDS011;51107;47.652;19.016;2022-10-18T12:31:36;2.83;;;1.70;;
64682;SDS011;51107;47.652;19.016;2022-10-18T12:34:22;2.50;;;1.48;;
64682;SDS011;51107;47.652;19.016;2022-10-18T12:42:46;4.40;;;1.37;;
64682;SDS011;51107;47.652;19.016;2022-10-18T12:45:31;2.05;;;1.50;;
64682;SDS011;51107;47.652;19.016;2022-10-18T12:48:05;5.07;;;1.85;;
64682;SDS011;51107;47.652;19.016;2022-10-18T12:50:36;5.10;;;2.58;;
64682;SDS011;51107;47.652;19.016;2022-10-18T12:55:39;2.30;;;1.75;;
64682;SDS011;51107;47.652;19.016;2022-10-18T13:13:38;3.80;;;1.90;;
64682;SDS011;51107;47.652;19.016;2022-10-18T13:18:54;2.17;;;1.62;;
64682;SDS011;51107;47.652;19.016;2022-10-18T13:24:44;2.45;;;1.65;;
64682;SDS011;51107;47.652;19.016;2022-10-18T13:27:50;3.37;;;1.60;;
64682;SDS011;51107;47.652;19.016;2022-10-18T13:30:45;2.30;;;1.60;;
64682;SDS011;51107;47.652;19.016;2022-10-18T13:36:03;3.78;;;1.87;;
64682;SDS011;51107;47.652;19.016;2022-10-18T13:44:23;2.97;;;1.70;;
64682;SDS011;51107;47.652;19.016;2022-10-18T13:47:08;4.85;;;2.08;;
64682;SDS011;51107;47.652;19.016;2022-10-18T13:49:47;2.10;;;1.45;;
64682;SDS011;51107;47.652;19.016;2022-10-18T13:52:37;2.25;;;1.70;;
64682;SDS011;51107;47.652;19.016;2022-10-18T13:55:23;2.20;;;1.80;;
64682;SDS011;51107;47.652;19.016;2022-10-18T14:03:50;1.83;;;1.30;;
64682;SDS011;51107;47.652;19.016;2022-10-18T14:06:46;2.70;;;1.55;;
64682;SDS011;51107;47.652;19.016;2022-10-18T14:09:18;2.08;;;1.42;;
64682;SDS011;51107;47.652;19.016;2022-10-18T14:12:15;1.55;;;1.37;;
64682;SDS011;51107;47.652;19.016;2022-10-18T14:15:16;3.05;;;2.05;;
64682;SDS011;51107;47.652;19.016;2022-10-18T14:18:11;1.77;;;1.23;;
64682;SDS011;51107;47.652;19.016;2022-10-18T14:20:43;6.07;;;1.70;;
64682;SDS011;51107;47.652;19.016;2022-10-18T14:23:41;3.53;;;1.52;;
64682;SDS011;51107;47.652;19.016;2022-10-18T14:26:15;2.37;;;1.37;;
64682;SDS011;51107;47.652;19.016;2022-10-18T14:29:00;2.08;;;1.48;;
64682;SDS011;51107;47.652;19.016;2022-10-18T14:31:30;14.40;;;2.05;;
64682;SDS011;51107;47.652;19.016;2022-10-18T14:33:58;2.03;;;1.40;;
64682;SDS011;51107;47.652;19.016;2022-10-18T14:36:46;1.70;;;1.30;;
64682;SDS011;51107;47.652;19.016;2022-10-18T14:39:23;2.33;;;1.80;;
64682;SDS011;51107;47.652;19.016;2022-10-18T14:41:56;1.85;;;1.33;;
64682;SDS011;51107;47.652;19.016;2022-10-18T14:44:26;1.83;;;1.42;;
64682;SDS011;51107;47.652;19.016;2022-10-18T14:46:59;4.00;;;1.75;;
64682;SDS011;51107;47.652;19.016;2022-10-18T14:49:29;3.75;;;1.85;;
64682;SDS011;51107;47.652;19.016;2022-10-18T14:51:58;2.42;;;1.40;;
64682;SDS011;51107;47.652;19.016;2022-10-18T14:54:31;2.03;;;1.45;;
64682;SDS011;51107;47.652;19.016;2022-10-18T14:57:04;5.53;;;1.58;;
64682;SDS011;51107;47.652;19.016;2022-10-18T14:59:36;2.58;;;1.40;;
64682;SDS011;51107;47.652;19.016;2022-10-18T15:02:24;2.25;;;1.30;;
64682;SDS011;51107;47.652;19.016;2022-10-18T15:05:16;2.45;;;1.30;;
64682;SDS011;51107;47.652;19.016;2022-10-18T15:07:49;2.80;;;1.70;;
64682;SDS011;51107;47.652;19.016;2022-10-18T15:10:26;3.25;;;2.12;;
64682;SDS011;51107;47.652;19.016;2022-10-18T15:12:58;3.30;;;2.08;;
64682;SDS011;51107;47.652;19.016;2022-10-18T15:15:38;3.87;;;2.67;;
64682;SDS011;51107;47.652;19.016;2022-10-18T15:18:12;4.57;;;2.55;;
64682;SDS011;51107;47.652;19.016;2022-10-18T15:21:05;4.85;;;2.95;;
64682;SDS011;51107;47.652;19.016;2022-10-18T15:23:53;5.78;;;1.98;;
64682;SDS011;51107;47.652;19.016;2022-10-18T15:26:24;10.05;;;2.10;;
64682;SDS011;51107;47.652;19.016;2022-10-18T15:28:56;3.03;;;2.03;;
64682;SDS011;51107;47.652;19.016;2022-10-18T15:31:32;4.97;;;2.03;;
64682;SDS011;51107;47.652;19.016;2022-10-18T15:34:07;4.47;;;2.33;;
64682;SDS011;51107;47.652;19.016;2022-10-18T15:36:36;3.78;;;2.17;;
64682;SDS011;51107;47.652;19.016;2022-10-18T15:39:15;13.50;;;1.90;;
64682;SDS011;51107;47.652;19.016;2022-10-18T15:41:47;3.05;;;1.92;;
64682;SDS011;51107;47.652;19.016;2022-10-18T15:44:25;3.20;;;1.90;;
64682;SDS011;51107;47.652;19.016;2022-10-18T15:46:55;10.90;;;2.17;;
64682;SDS011;51107;47.652;19.016;2022-10-18T15:58:04;3.20;;;1.58;;
64682;SDS011;51107;47.652;19.016;2022-10-18T16:00:38;7.20;;;1.60;;
64682;SDS011;51107;47.652;19.016;2022-10-18T16:03:07;3.35;;;1.80;;
64682;SDS011;51107;47.652;19.016;2022-10-18T16:05:36;2.08;;;1.48;;
64682;SDS011;51107;47.652;19.016;2022-10-18T16:08:22;4.00;;;1.85;;
64682;SDS011;51107;47.652;19.016;2022-10-18T16:10:52;3.12;;;1.80;;
64682;SDS011;51107;47.652;19.016;2022-10-18T16:13:20;1.95;;;1.48;;
64682;SDS011;51107;47.652;19.016;2022-10-18T16:15:49;6.82;;;1.77;;
64682;SDS011;51107;47.652;19.016;2022-10-18T16:18:18;5.68;;;1.92;;
64682;SDS011;51107;47.652;19.016;2022-10-18T16:20:47;2.92;;;1.80;;
64682;SDS011;51107;47.652;19.016;2022-10-18T16:23:19;6.25;;;2.08;;
64682;SDS011;51107;47.652;19.016;2022-10-18T16:25:48;4.78;;;3.35;;
64682;SDS011;51107;47.652;19.016;2022-10-18T16:28:21;5.43;;;3.12;;
64682;SDS011;51107;47.652;19.016;2022-10-18T16:30:56;9.85;;;2.90;;
64682;SDS011;51107;47.652;19.016;2022-10-18T16:33:26;9.00;;;4.65;;
64682;SDS011;51107;47.652;19.016;2022-10-18T16:35:56;11.65;;;4.25;;
64682;SDS011;51107;47.652;19.016;2022-10-18T16:38:28;7.78;;;3.83;;
64682;SDS011;51107;47.652;19.016;2022-10-18T16:41:05;17.87;;;8.73;;
64682;SDS011;51107;47.652;19.016;2022-10-18T16:43:34;31.05;;;10.90;;
64682;SDS011;51107;47.652;19.016;2022-10-18T16:46:03;9.02;;;4.57;;
64682;SDS011;51107;47.652;19.016;2022-10-18T16:48:32;11.15;;;4.50;;
64682;SDS011;51107;47.652;19.016;2022-10-18T16:51:00;12.02;;;4.78;;
64682;SDS011;51107;47.652;19.016;2022-10-18T16:53:29;10.13;;;4.68;;
64682;SDS011;51107;47.652;19.016;2022-10-18T16:55:58;7.75;;;3.25;;
64682;SDS011;51107;47.652;19.016;2022-10-18T16:58:27;6.15;;;2.47;;
64682;SDS011;51107;47.652;19.016;2022-10-18T17:00:58;8.13;;;2.80;;
64682;SDS011;51107;47.652;19.016;2022-10-18T17:03:31;4.40;;;2.30;;
64682;SDS011;51107;47.652;19.016;2022-10-18T17:06:00;3.20;;;1.92;;
64682;SDS011;51107;47.652;19.016;2022-10-18T17:08:28;3.95;;;2.40;;
64682;SDS011;51107;47.652;19.016;2022-10-18T17:10:57;7.40;;;2.60;;
64682;SDS011;51107;47.652;19.016;2022-10-18T17:13:26;4.15;;;2.78;;
64682;SDS011;51107;47.652;19.016;2022-10-18T17:15:54;6.70;;;2.42;;
64682;SDS011;51107;47.652;19.016;2022-10-18T17:18:23;6.15;;;3.28;;
64682;SDS011;51107;47.652;19.016;2022-10-18T17:23:29;7.90;;;2.40;;
64682;SDS011;51107;47.652;19.016;2022-10-18T17:25:57;4.30;;;2.20;;
64682;SDS011;51107;47.652;19.016;2022-10-18T17:28:45;5.35;;;2.08;;
64682;SDS011;51107;47.652;19.016;2022-10-18T17:31:18;3.28;;;1.58;;
64682;SDS011;51107;47.652;19.016;2022-10-18T17:33:52;3.72;;;2.45;;
64682;SDS011;51107;47.652;19.016;2022-10-18T17:36:25;3.75;;;2.33;;
64682;SDS011;51107;47.652;19.016;2022-10-18T17:38:54;8.82;;;2.10;;
64682;SDS011;51107;47.652;19.016;2022-10-18T17:41:22;12.40;;;3.72;;
64682;SDS011;51107;47.652;19.016;2022-10-18T17:43:51;7.20;;;2.87;;
64682;SDS011;51107;47.652;19.016;2022-10-18T17:46:19;5.30;;;2.70;;